createdAt,value
2017-12-25T00:01:13.743Z,0
2017-12-25T00:02:36.044Z,0
2017-12-25T00:03:58.196Z,0
2017-12-25T00:05:20.483Z,0
2017-12-25T00:06:42.467Z,0
2017-12-25T00:08:04.605Z,0
2017-12-25T00:09:26.824Z,0
2017-12-25T00:10:48.963Z,0
2017-12-25T00:12:10.575Z,0
2017-12-25T00:13:32.782Z,0
2017-12-25T00:14:54.443Z,0
2017-12-25T00:16:16.594Z,0
2017-12-25T00:17:38.329Z,0
2017-12-25T00:19:00.294Z,0
2017-12-25T00:20:22.424Z,0
2017-12-25T00:21:43.767Z,0
2017-12-25T00:23:05.888Z,0
2017-12-25T00:24:27.491Z,0
2017-12-25T00:25:49.405Z,0
2017-12-25T00:27:11.403Z,0
2017-12-25T00:28:33.050Z,0
2017-12-25T00:29:54.641Z,0
2017-12-25T00:31:16.765Z,0
2017-12-25T00:32:38.646Z,0
2017-12-25T00:34:00.453Z,0
2017-12-25T00:35:22.411Z,0
2017-12-25T00:36:44.368Z,0
2017-12-25T00:38:05.728Z,0
2017-12-25T00:39:27.798Z,0
2017-12-25T00:40:49.372Z,0
2017-12-25T00:42:11.506Z,0
2017-12-25T00:43:33.477Z,0
2017-12-25T00:44:55.725Z,0
2017-12-25T00:46:17.980Z,0
2017-12-25T00:47:39.584Z,0
2017-12-25T00:49:01.724Z,0
2017-12-25T00:50:23.897Z,0
2017-12-25T00:51:46.058Z,0
2017-12-25T00:53:08.194Z,0
2017-12-25T00:54:29.542Z,0
2017-12-25T00:55:50.895Z,0
2017-12-25T00:57:12.747Z,0
2017-12-25T00:58:34.357Z,0
2017-12-25T00:59:56.483Z,0
2017-12-25T01:01:18.420Z,0
2017-12-25T01:02:40.283Z,0
2017-12-25T01:04:02.543Z,0
2017-12-25T01:05:24.441Z,0
2017-12-25T01:06:46.366Z,0
2017-12-25T01:08:08.230Z,0
2017-12-25T01:09:30.387Z,0
2017-12-25T01:10:52.550Z,0
2017-12-25T01:12:14.667Z,0
2017-12-25T01:13:36.606Z,0
2017-12-25T01:14:58.571Z,0
2017-12-25T01:16:20.751Z,0
2017-12-25T01:17:42.731Z,0
2017-12-25T01:19:04.479Z,0
2017-12-25T01:20:26.406Z,0
2017-12-25T01:21:48.677Z,0
2017-12-25T01:23:10.813Z,0
2017-12-25T01:24:32.673Z,0
2017-12-25T01:25:54.556Z,0
2017-12-25T01:27:16.669Z,0
2017-12-25T01:28:38.634Z,0
2017-12-25T01:30:00.602Z,0
2017-12-25T01:31:22.555Z,0
2017-12-25T01:32:44.414Z,0
2017-12-25T01:34:05.757Z,0
2017-12-25T01:35:27.378Z,0
2017-12-25T01:36:48.972Z,0
2017-12-25T01:38:10.860Z,0
2017-12-25T01:39:32.488Z,0
2017-12-25T01:40:54.455Z,0
2017-12-25T01:42:16.303Z,0
2017-12-25T01:43:38.002Z,0
2017-12-25T01:44:59.874Z,0
2017-12-25T01:46:21.779Z,0
2017-12-25T01:47:43.118Z,0
2017-12-25T01:49:05.324Z,0
2017-12-25T01:50:27.304Z,0
2017-12-25T01:51:49.185Z,0
2017-12-25T01:53:11.195Z,0
2017-12-25T01:54:32.805Z,0
2017-12-25T01:55:54.258Z,0
2017-12-25T01:57:15.873Z,0
2017-12-25T01:58:37.365Z,0
2017-12-25T01:59:59.546Z,0
2017-12-25T02:01:21.253Z,0
2017-12-25T02:02:42.971Z,0
2017-12-25T02:04:05.084Z,0
2017-12-25T02:05:26.971Z,0
2017-12-25T02:06:49.083Z,0
2017-12-25T02:08:10.172Z,0
2017-12-25T02:09:31.797Z,0
2017-12-25T02:10:54.120Z,0
2017-12-25T02:12:15.713Z,0
2017-12-25T02:13:37.607Z,0
2017-12-25T02:14:59.458Z,0
2017-12-25T02:16:20.813Z,0
2017-12-25T02:17:43.153Z,0
2017-12-25T02:19:05.293Z,0
2017-12-25T02:20:27.183Z,0
2017-12-25T02:21:49.104Z,0
2017-12-25T02:23:11.324Z,0
2017-12-25T02:24:33.179Z,0
2017-12-25T02:25:55.314Z,0
2017-12-25T02:27:17.194Z,0
2017-12-25T02:28:38.279Z,0
2017-12-25T02:30:00.153Z,0
2017-12-25T02:31:22.060Z,0
2017-12-25T02:32:43.941Z,0
2017-12-25T02:34:05.605Z,0
2017-12-25T02:35:27.085Z,0
2017-12-25T02:36:49.414Z,0
2017-12-25T02:38:11.079Z,0
2017-12-25T02:39:33.249Z,0
2017-12-25T02:40:55.228Z,0
2017-12-25T02:42:17.485Z,0
2017-12-25T02:43:39.340Z,0
2017-12-25T02:45:01.214Z,0
2017-12-25T02:46:23.335Z,0
2017-12-25T02:47:44.930Z,0
2017-12-25T02:49:06.785Z,0
2017-12-25T02:50:28.756Z,0
2017-12-25T02:51:50.360Z,0
2017-12-25T02:53:12.224Z,0
2017-12-25T02:54:34.016Z,0
2017-12-25T02:55:56.163Z,0
2017-12-25T02:57:17.855Z,0
2017-12-25T02:58:39.468Z,0
2017-12-25T03:00:01.338Z,0
2017-12-25T03:01:22.882Z,0
2017-12-25T03:02:45.093Z,0
2017-12-25T03:04:07.229Z,0
2017-12-25T03:05:28.831Z,0
2017-12-25T03:06:50.780Z,0
2017-12-25T03:08:13.005Z,0
2017-12-25T03:09:35.025Z,0
2017-12-25T03:10:56.873Z,0
2017-12-25T03:12:18.775Z,0
2017-12-25T03:13:40.666Z,0
2017-12-25T03:15:02.823Z,0
2017-12-25T03:16:24.473Z,0
2017-12-25T03:17:46.091Z,0
2017-12-25T03:19:07.713Z,0
2017-12-25T03:20:30.004Z,0
2017-12-25T03:21:51.998Z,0
2017-12-25T03:23:13.596Z,0
2017-12-25T03:24:35.260Z,0
2017-12-25T03:25:56.606Z,0
2017-12-25T03:27:18.474Z,0
2017-12-25T03:28:40.377Z,0
2017-12-25T03:30:02.525Z,0
2017-12-25T03:31:24.163Z,0
2017-12-25T03:32:46.033Z,0
2017-12-25T03:34:07.662Z,0
2017-12-25T03:35:29.792Z,0
2017-12-25T03:36:51.385Z,0
2017-12-25T03:38:13.573Z,0
2017-12-25T03:39:35.167Z,0
2017-12-25T03:40:56.836Z,0
2017-12-25T03:42:18.687Z,0
2017-12-25T03:43:40.810Z,0
2017-12-25T03:45:02.403Z,0
2017-12-25T03:46:24.289Z,0
2017-12-25T03:47:46.143Z,0
2017-12-25T03:49:08.032Z,0
2017-12-25T03:50:29.634Z,0
2017-12-25T03:51:51.781Z,0
2017-12-25T03:53:13.383Z,0
2017-12-25T03:54:35.028Z,0
2017-12-25T03:55:56.876Z,0
2017-12-25T03:57:18.487Z,0
2017-12-25T03:58:40.388Z,0
2017-12-25T04:00:01.736Z,0
2017-12-25T04:01:23.888Z,0
2017-12-25T04:02:45.233Z,0
2017-12-25T04:04:06.322Z,0
2017-12-25T04:05:27.972Z,0
2017-12-25T04:06:49.827Z,0
2017-12-25T04:08:11.464Z,0
2017-12-25T04:09:32.854Z,0
2017-12-25T04:10:54.541Z,0
2017-12-25T04:12:16.192Z,0
2017-12-25T04:13:38.533Z,0
2017-12-25T04:14:59.880Z,0
2017-12-25T04:16:21.731Z,0
2017-12-25T04:17:43.084Z,0
2017-12-25T04:19:04.741Z,0
2017-12-25T04:20:26.849Z,0
2017-12-25T04:21:48.442Z,0
2017-12-25T04:23:10.042Z,0
2017-12-25T04:24:32.096Z,0
2017-12-25T04:25:53.685Z,0
2017-12-25T04:27:15.527Z,0
2017-12-25T04:28:37.123Z,0
2017-12-25T04:29:58.714Z,0
2017-12-25T04:31:20.068Z,0
2017-12-25T04:32:42.126Z,0
2017-12-25T04:34:04.410Z,0
2017-12-25T04:35:26.624Z,0
2017-12-25T04:36:48.503Z,0
2017-12-25T04:38:10.367Z,0
2017-12-25T04:39:32.495Z,0
2017-12-25T04:40:54.633Z,0
2017-12-25T04:42:16.321Z,0
2017-12-25T04:43:37.925Z,0
2017-12-25T04:44:59.816Z,0
2017-12-25T04:46:21.718Z,0
2017-12-25T04:47:43.067Z,0
2017-12-25T04:49:04.722Z,0
2017-12-25T04:50:26.917Z,0
2017-12-25T04:51:49.061Z,0
2017-12-25T04:53:10.915Z,0
2017-12-25T04:54:32.387Z,0
2017-12-25T04:55:54.154Z,0
2017-12-25T04:57:15.523Z,0
2017-12-25T04:58:37.654Z,0
2017-12-25T04:59:59.780Z,0
2017-12-25T05:01:21.464Z,0
2017-12-25T05:02:43.319Z,0
2017-12-25T05:04:04.963Z,0
2017-12-25T05:05:26.823Z,0
2017-12-25T05:06:48.254Z,0
2017-12-25T05:08:09.607Z,0
2017-12-25T05:09:30.962Z,0
2017-12-25T05:10:52.856Z,0
2017-12-25T05:12:14.744Z,0
2017-12-25T05:13:36.655Z,0
2017-12-25T05:14:58.450Z,0
2017-12-25T05:16:20.585Z,0
2017-12-25T05:17:42.480Z,0
2017-12-25T05:19:04.741Z,0
2017-12-25T05:20:26.366Z,0
2017-12-25T05:21:48.226Z,0
2017-12-25T05:23:10.125Z,0
2017-12-25T05:24:31.756Z,0
2017-12-25T05:25:53.393Z,0
2017-12-25T05:27:14.761Z,0
2017-12-25T05:28:35.855Z,0
2017-12-25T05:29:58.023Z,0
2017-12-25T05:31:20.084Z,0
2017-12-25T05:32:41.962Z,0
2017-12-25T05:34:03.614Z,0
2017-12-25T05:35:25.624Z,0
2017-12-25T05:36:47.490Z,0
2017-12-25T05:38:08.817Z,0
2017-12-25T05:39:30.695Z,0
2017-12-25T05:40:52.681Z,0
2017-12-25T05:42:14.285Z,0
2017-12-25T05:43:36.529Z,0
2017-12-25T05:44:58.252Z,0
2017-12-25T05:46:20.505Z,0
2017-12-25T05:47:41.584Z,0
2017-12-25T05:49:03.470Z,0
2017-12-25T05:50:25.660Z,0
2017-12-25T05:51:47.551Z,0
2017-12-25T05:53:08.949Z,0
2017-12-25T05:54:30.610Z,0
2017-12-25T05:55:52.759Z,0
2017-12-25T05:57:14.402Z,0
2017-12-25T05:58:36.015Z,0
2017-12-25T05:59:57.594Z,0
2017-12-25T06:01:18.672Z,0
2017-12-25T06:02:40.818Z,0
2017-12-25T06:04:02.550Z,0
2017-12-25T06:05:23.634Z,0
2017-12-25T06:06:45.629Z,0
2017-12-25T06:08:07.332Z,0
2017-12-25T06:09:28.666Z,0
2017-12-25T06:10:50.533Z,0
2017-12-25T06:12:12.685Z,0
2017-12-25T06:13:34.034Z,0
2017-12-25T06:14:55.674Z,0
2017-12-25T06:16:17.382Z,0
2017-12-25T06:17:39.025Z,0
2017-12-25T06:19:00.405Z,0
2017-12-25T06:20:22.283Z,0
2017-12-25T06:21:43.745Z,0
2017-12-25T06:23:05.602Z,0
2017-12-25T06:24:27.220Z,0
2017-12-25T06:25:49.034Z,0
2017-12-25T06:27:10.915Z,0
2017-12-25T06:28:32.579Z,0
2017-12-25T06:29:54.694Z,0
2017-12-25T06:31:16.164Z,0
2017-12-25T06:32:37.626Z,0
2017-12-25T06:33:59.325Z,0
2017-12-25T06:35:20.974Z,0
2017-12-25T06:36:42.408Z,0
2017-12-25T06:38:04.360Z,0
2017-12-25T06:39:25.694Z,0
2017-12-25T06:40:47.872Z,0
2017-12-25T06:42:09.232Z,0
2017-12-25T06:43:31.362Z,0
2017-12-25T06:44:52.962Z,0
2017-12-25T06:46:14.594Z,0
2017-12-25T06:47:35.942Z,0
2017-12-25T06:48:57.833Z,0
2017-12-25T06:50:19.712Z,0
2017-12-25T06:51:41.574Z,0
2017-12-25T06:53:03.453Z,0
2017-12-25T06:54:25.052Z,0
2017-12-25T06:55:46.412Z,0
2017-12-25T06:57:08.660Z,0
2017-12-25T06:58:30.819Z,0
2017-12-25T06:59:52.444Z,0
2017-12-25T07:01:14.041Z,0
2017-12-25T07:02:35.665Z,0
2017-12-25T07:03:57.396Z,0
2017-12-25T07:05:19.050Z,0
2017-12-25T07:06:41.044Z,0
2017-12-25T07:08:02.907Z,0
2017-12-25T07:09:24.665Z,0
2017-12-25T07:10:46.553Z,0
2017-12-25T07:12:08.156Z,0
2017-12-25T07:13:29.604Z,0
2017-12-25T07:14:51.198Z,0
2017-12-25T07:16:12.551Z,0
2017-12-25T07:17:34.529Z,0
2017-12-25T07:18:56.663Z,0
2017-12-25T07:20:18.389Z,0
2017-12-25T07:21:39.559Z,0
2017-12-25T07:23:01.775Z,0
2017-12-25T07:24:24.444Z,0
2017-12-25T07:25:45.813Z,0
2017-12-25T07:27:07.179Z,0
2017-12-25T07:28:28.534Z,0
2017-12-25T07:29:50.769Z,0
2017-12-25T07:31:12.500Z,0
2017-12-25T07:32:34.423Z,0
2017-12-25T07:33:55.759Z,0
2017-12-25T07:35:17.352Z,0
2017-12-25T07:36:38.437Z,0
2017-12-25T07:38:00.120Z,0
2017-12-25T07:39:22.137Z,0
2017-12-25T07:40:43.576Z,0
2017-12-25T07:42:05.183Z,0
2017-12-25T07:43:27.062Z,0
2017-12-25T07:44:48.729Z,0
2017-12-25T07:46:10.897Z,0
2017-12-25T07:47:32.557Z,0
2017-12-25T07:48:54.468Z,0
2017-12-25T07:50:16.751Z,0
2017-12-25T07:51:38.361Z,0
2017-12-25T07:53:00.413Z,5
2017-12-25T07:54:22.314Z,5
2017-12-25T07:55:43.893Z,5
2017-12-25T07:57:05.689Z,0
2017-12-25T07:58:27.307Z,5
2017-12-25T07:59:49.292Z,5
2017-12-25T08:01:10.695Z,5
2017-12-25T08:02:32.844Z,5
2017-12-25T08:03:54.970Z,5
2017-12-25T08:05:16.647Z,5
2017-12-25T08:06:38.258Z,10
2017-12-25T08:07:59.884Z,10
2017-12-25T08:09:21.507Z,15
2017-12-25T08:10:43.249Z,15
2017-12-25T08:12:04.691Z,15
2017-12-25T08:13:26.907Z,15
2017-12-25T08:14:48.516Z,15
2017-12-25T08:16:10.413Z,15
2017-12-25T08:17:32.160Z,20
2017-12-25T08:18:54.280Z,20
2017-12-25T08:20:15.655Z,15
2017-12-25T08:21:37.588Z,15
2017-12-25T08:22:59.719Z,15
2017-12-25T08:24:21.877Z,20
2017-12-25T08:25:43.764Z,20
2017-12-25T08:27:05.654Z,20
2017-12-25T08:28:27.083Z,20
2017-12-25T08:29:49.263Z,20
2017-12-25T08:31:11.481Z,20
2017-12-25T08:32:33.372Z,20
2017-12-25T08:33:54.765Z,15
2017-12-25T08:35:16.636Z,20
2017-12-25T08:36:38.284Z,15
2017-12-25T08:38:00.212Z,20
2017-12-25T08:39:22.088Z,15
2017-12-25T08:40:44.317Z,15
2017-12-25T08:42:05.724Z,15
2017-12-25T08:43:28.025Z,15
2017-12-25T08:44:50.153Z,15
2017-12-25T08:46:11.804Z,15
2017-12-25T08:47:34.160Z,15
2017-12-25T08:48:55.779Z,15
2017-12-25T08:50:17.386Z,20
2017-12-25T08:51:38.763Z,25
2017-12-25T08:53:00.661Z,25
2017-12-25T08:54:22.637Z,25
2017-12-25T08:55:44.515Z,20
2017-12-25T08:57:06.134Z,20
2017-12-25T08:58:28.019Z,15
2017-12-25T08:59:49.636Z,15
2017-12-25T09:01:11.330Z,20
2017-12-25T09:02:33.566Z,25
2017-12-25T09:03:55.772Z,20
2017-12-25T09:05:17.656Z,25
2017-12-25T09:06:39.794Z,25
2017-12-25T09:08:01.459Z,20
2017-12-25T09:09:23.581Z,20
2017-12-25T09:10:45.474Z,15
2017-12-25T09:12:07.623Z,20
2017-12-25T09:13:29.510Z,25
2017-12-25T09:14:51.809Z,20
2017-12-25T09:16:13.727Z,15
2017-12-25T09:17:35.643Z,15
2017-12-25T09:18:57.807Z,15
2017-12-25T09:20:18.989Z,15
2017-12-25T09:21:40.327Z,15
2017-12-25T09:23:02.484Z,20
2017-12-25T09:24:24.693Z,25
2017-12-25T09:25:46.829Z,25
2017-12-25T09:27:09.013Z,25
2017-12-25T09:28:30.894Z,20
2017-12-25T09:29:52.247Z,20
2017-12-25T09:31:14.135Z,30
2017-12-25T09:32:36.180Z,35
2017-12-25T09:33:58.433Z,35
2017-12-25T09:35:20.394Z,35
2017-12-25T09:36:42.511Z,30
2017-12-25T09:38:04.389Z,40
2017-12-25T09:39:26.626Z,40
2017-12-25T09:40:48.752Z,40
2017-12-25T09:42:10.675Z,40
2017-12-25T09:43:32.592Z,40
2017-12-25T09:44:54.205Z,40
2017-12-25T09:46:16.150Z,45
2017-12-25T09:47:38.105Z,40
2017-12-25T09:48:59.802Z,40
2017-12-25T09:50:21.185Z,45
2017-12-25T09:51:42.520Z,45
2017-12-25T09:53:04.734Z,45
2017-12-25T09:54:26.903Z,50
2017-12-25T09:55:49.041Z,50
2017-12-25T09:57:11.064Z,45
2017-12-25T09:58:32.799Z,50
2017-12-25T09:59:55.017Z,50
2017-12-25T10:01:17.162Z,45
2017-12-25T10:02:39.043Z,45
2017-12-25T10:04:01.325Z,55
2017-12-25T10:05:23.202Z,55
2017-12-25T10:06:45.132Z,55
2017-12-25T10:08:07.141Z,55
2017-12-25T10:09:29.272Z,45
2017-12-25T10:10:51.171Z,40
2017-12-25T10:12:13.363Z,45
2017-12-25T10:13:35.514Z,40
2017-12-25T10:14:57.432Z,40
2017-12-25T10:16:19.762Z,50
2017-12-25T10:17:41.922Z,60
2017-12-25T10:19:04.229Z,65
2017-12-25T10:20:26.197Z,75
2017-12-25T10:21:48.403Z,80
2017-12-25T10:23:10.326Z,75
2017-12-25T10:24:32.234Z,65
2017-12-25T10:25:53.575Z,70
2017-12-25T10:27:15.708Z,75
2017-12-25T10:28:37.871Z,75
2017-12-25T10:29:59.769Z,80
2017-12-25T10:31:21.528Z,80
2017-12-25T10:32:43.184Z,65
2017-12-25T10:34:05.494Z,60
2017-12-25T10:35:27.378Z,70
2017-12-25T10:36:49.756Z,80
2017-12-25T10:38:11.667Z,90
2017-12-25T10:39:33.934Z,90
2017-12-25T10:40:55.861Z,95
2017-12-25T10:42:17.860Z,85
2017-12-25T10:43:39.261Z,80
2017-12-25T10:45:01.471Z,75
2017-12-25T10:46:23.639Z,70
2017-12-25T10:47:45.717Z,75
2017-12-25T10:49:07.615Z,80
2017-12-25T10:50:29.564Z,85
2017-12-25T10:51:51.781Z,105
2017-12-25T10:53:13.664Z,110
2017-12-25T10:54:35.877Z,110
2017-12-25T10:55:58.212Z,110
2017-12-25T10:57:20.384Z,85
2017-12-25T10:58:42.570Z,85
2017-12-25T11:00:04.550Z,85
2017-12-25T11:01:26.591Z,90
2017-12-25T11:02:48.482Z,90
2017-12-25T11:04:10.173Z,90
2017-12-25T11:05:32.512Z,90
2017-12-25T11:06:54.722Z,100
2017-12-25T11:08:16.455Z,95
2017-12-25T11:09:38.701Z,95
2017-12-25T11:11:00.072Z,95
2017-12-25T11:12:22.204Z,95
2017-12-25T11:13:44.355Z,100
2017-12-25T11:15:05.987Z,85
2017-12-25T11:16:27.911Z,80
2017-12-25T11:17:49.524Z,85
2017-12-25T11:19:11.667Z,85
2017-12-25T11:20:33.704Z,85
2017-12-25T11:21:55.337Z,95
2017-12-25T11:23:16.961Z,95
2017-12-25T11:24:38.844Z,85
2017-12-25T11:26:00.476Z,75
2017-12-25T11:27:22.423Z,75
2017-12-25T11:28:44.051Z,65
2017-12-25T11:30:05.474Z,65
2017-12-25T11:31:27.348Z,75
2017-12-25T11:32:48.973Z,85
2017-12-25T11:34:11.224Z,95
2017-12-25T11:35:33.644Z,65
2017-12-25T11:36:55.581Z,50
2017-12-25T11:38:17.765Z,65
2017-12-25T11:39:39.384Z,70
2017-12-25T11:41:01.353Z,55
2017-12-25T11:42:22.992Z,70
2017-12-25T11:43:44.895Z,70
2017-12-25T11:45:06.503Z,50
2017-12-25T11:46:28.408Z,50
2017-12-25T11:47:50.016Z,55
2017-12-25T11:49:11.583Z,50
2017-12-25T11:50:33.734Z,50
2017-12-25T11:51:55.625Z,45
2017-12-25T11:53:17.776Z,45
2017-12-25T11:54:39.406Z,45
2017-12-25T11:56:01.639Z,45
2017-12-25T11:57:23.294Z,55
2017-12-25T11:58:45.438Z,60
2017-12-25T12:00:07.328Z,55
2017-12-25T12:01:29.246Z,55
2017-12-25T12:02:50.605Z,50
2017-12-25T12:04:12.483Z,45
2017-12-25T12:05:34.629Z,45
2017-12-25T12:06:56.574Z,45
2017-12-25T12:08:18.992Z,40
2017-12-25T12:09:41.152Z,45
2017-12-25T12:11:02.744Z,45
2017-12-25T12:12:24.610Z,40
2017-12-25T12:13:46.240Z,45
2017-12-25T12:15:07.854Z,40
2017-12-25T12:16:29.728Z,45
2017-12-25T12:17:51.849Z,45
2017-12-25T12:19:13.091Z,45
2017-12-25T12:20:34.277Z,40
2017-12-25T12:21:55.914Z,35
2017-12-25T12:23:17.021Z,30
2017-12-25T12:24:38.900Z,40
2017-12-25T12:26:00.363Z,30
2017-12-25T12:27:22.236Z,30
2017-12-25T12:28:43.893Z,30
2017-12-25T12:30:05.706Z,30
2017-12-25T12:31:27.378Z,35
2017-12-25T12:32:49.258Z,45
2017-12-25T12:34:10.604Z,55
2017-12-25T12:35:32.583Z,55
2017-12-25T12:36:54.475Z,55
2017-12-25T12:38:16.466Z,55
2017-12-25T12:39:38.362Z,45
2017-12-25T12:41:00.035Z,45
2017-12-25T12:42:21.134Z,45
2017-12-25T12:43:42.817Z,45
2017-12-25T12:45:04.167Z,50
2017-12-25T12:46:26.294Z,55
2017-12-25T12:47:48.161Z,40
2017-12-25T12:49:10.309Z,45
2017-12-25T12:50:32.211Z,30
2017-12-25T12:52:09.074Z,35
2017-12-25T12:53:30.724Z,40
2017-12-25T12:54:51.825Z,40
2017-12-25T12:56:13.212Z,50
2017-12-25T12:57:34.823Z,45
2017-12-25T12:58:56.473Z,40
2017-12-25T13:00:18.215Z,35
2017-12-25T13:01:39.588Z,40
2017-12-25T13:03:01.733Z,40
2017-12-25T13:04:23.446Z,50
2017-12-25T13:05:45.193Z,40
2017-12-25T13:07:07.068Z,40
2017-12-25T13:08:28.711Z,35
2017-12-25T13:09:50.834Z,35
2017-12-25T13:11:13.020Z,35
2017-12-25T13:12:34.459Z,30
2017-12-25T13:13:55.816Z,25
2017-12-25T13:15:17.730Z,25
2017-12-25T13:16:39.341Z,30
2017-12-25T13:18:00.724Z,35
2017-12-25T13:19:22.366Z,40
2017-12-25T13:20:43.974Z,45
2017-12-25T13:22:05.986Z,30
2017-12-25T13:23:27.611Z,20
2017-12-25T13:24:48.973Z,25
2017-12-25T13:26:10.340Z,30
2017-12-25T13:27:32.234Z,25
2017-12-25T13:28:53.609Z,25
2017-12-25T13:30:15.494Z,20
2017-12-25T13:31:36.595Z,15
2017-12-25T13:32:58.476Z,15
2017-12-25T13:34:20.523Z,20
2017-12-25T13:35:42.195Z,15
2017-12-25T13:37:03.831Z,15
2017-12-25T13:38:26.064Z,20
2017-12-25T13:39:47.725Z,20
2017-12-25T13:41:09.595Z,20
2017-12-25T13:42:31.733Z,15
2017-12-25T13:43:53.636Z,15
2017-12-25T13:45:15.064Z,20
2017-12-25T13:46:36.949Z,25
2017-12-25T13:47:58.935Z,20
2017-12-25T13:49:21.046Z,20
2017-12-25T13:50:42.686Z,20
2017-12-25T13:52:04.264Z,20
2017-12-25T13:53:25.644Z,20
2017-12-25T13:54:47.564Z,20
2017-12-25T13:56:09.489Z,20
2017-12-25T13:57:31.137Z,15
2017-12-25T13:58:52.496Z,10
2017-12-25T14:00:13.864Z,10
2017-12-25T14:01:35.659Z,20
2017-12-25T14:02:57.546Z,25
2017-12-25T14:04:19.163Z,25
2017-12-25T14:05:40.781Z,25
2017-12-25T14:07:02.148Z,15
2017-12-25T14:08:24.483Z,15
2017-12-25T14:09:46.498Z,10
2017-12-25T14:11:07.944Z,15
2017-12-25T14:12:29.534Z,20
2017-12-25T14:13:51.962Z,15
2017-12-25T14:15:13.620Z,20
2017-12-25T14:16:35.525Z,15
2017-12-25T14:17:57.733Z,15
2017-12-25T14:19:19.079Z,15
2017-12-25T14:20:40.953Z,20
2017-12-25T14:22:02.960Z,20
2017-12-25T14:23:24.319Z,20
2017-12-25T14:24:46.243Z,20
2017-12-25T14:26:07.596Z,15
2017-12-25T14:27:29.323Z,10
2017-12-25T14:28:51.034Z,10
2017-12-25T14:30:13.705Z,5
2017-12-25T14:31:35.383Z,10
2017-12-25T14:32:57.557Z,10
2017-12-25T14:34:19.715Z,5
2017-12-25T14:35:41.603Z,5
2017-12-25T14:37:03.524Z,5
2017-12-25T14:38:25.706Z,5
2017-12-25T14:39:47.591Z,5
2017-12-25T14:41:09.237Z,5
2017-12-25T14:42:30.850Z,5
2017-12-25T14:43:52.747Z,5
2017-12-25T14:45:14.620Z,5
2017-12-25T14:46:36.264Z,5
2017-12-25T14:47:57.698Z,5
2017-12-25T14:49:19.051Z,5
2017-12-25T14:50:40.956Z,5
2017-12-25T14:52:03.114Z,5
2017-12-25T14:53:25.005Z,5
2017-12-25T14:54:47.145Z,5
2017-12-25T14:56:09.128Z,5
2017-12-25T14:57:30.857Z,5
2017-12-25T14:58:52.755Z,5
2017-12-25T15:00:14.506Z,5
2017-12-25T15:01:36.411Z,0
2017-12-25T15:02:58.718Z,0
2017-12-25T15:04:20.652Z,0
2017-12-25T15:05:42.864Z,0
2017-12-25T15:07:05.140Z,0
2017-12-25T15:08:27.293Z,0
2017-12-25T15:09:49.168Z,0
2017-12-25T15:11:11.433Z,0
2017-12-25T15:12:33.382Z,0
2017-12-25T15:13:55.588Z,0
2017-12-25T15:15:17.744Z,0
2017-12-25T15:16:39.624Z,0
2017-12-25T15:18:02.128Z,0
2017-12-25T15:19:24.325Z,0
2017-12-25T15:20:46.487Z,0
2017-12-25T15:22:08.119Z,0
2017-12-25T15:23:29.712Z,0
2017-12-25T15:24:51.885Z,0
2017-12-25T15:26:13.780Z,0
2017-12-25T15:27:35.658Z,0
2017-12-25T15:28:56.999Z,0
2017-12-25T15:30:18.860Z,0
2017-12-25T15:31:40.762Z,0
2017-12-25T15:33:02.955Z,0
2017-12-25T15:34:25.165Z,0
2017-12-25T15:35:46.855Z,0
2017-12-25T15:37:09.094Z,0
2017-12-25T15:38:31.256Z,0
2017-12-25T15:39:52.867Z,0
2017-12-25T15:41:14.518Z,0
2017-12-25T15:42:36.665Z,0
2017-12-25T15:43:58.932Z,0
2017-12-25T15:45:21.081Z,0
2017-12-25T15:46:43.078Z,0
2017-12-25T15:48:05.370Z,0
2017-12-25T15:49:27.511Z,0
2017-12-25T15:50:49.387Z,0
2017-12-25T15:52:11.265Z,0
2017-12-25T15:53:32.904Z,0
2017-12-25T15:54:55.084Z,0
2017-12-25T15:56:17.255Z,0
2017-12-25T15:57:39.144Z,0
2017-12-25T15:59:01.283Z,0
2017-12-25T16:00:23.445Z,0
2017-12-25T16:01:45.705Z,0
2017-12-25T16:03:07.629Z,0
2017-12-25T16:04:29.749Z,0
2017-12-25T16:05:51.931Z,0
2017-12-25T16:07:13.665Z,0
2017-12-25T16:08:35.799Z,0
2017-12-25T16:09:57.985Z,0
2017-12-25T16:11:19.681Z,0
2017-12-25T16:12:41.852Z,0
2017-12-25T16:14:04.000Z,0
2017-12-25T16:15:26.157Z,0
2017-12-25T16:16:48.496Z,0
2017-12-25T16:18:10.114Z,0
2017-12-25T16:19:32.401Z,0
2017-12-25T16:20:53.757Z,0
2017-12-25T16:22:15.691Z,0
2017-12-25T16:23:37.587Z,0
2017-12-25T16:24:59.566Z,0
2017-12-25T16:26:21.526Z,0
2017-12-25T16:27:43.846Z,0
2017-12-25T16:29:05.535Z,0
2017-12-25T16:30:27.673Z,0
2017-12-25T16:31:49.881Z,0
2017-12-25T16:33:11.799Z,0
2017-12-25T16:34:33.724Z,0
2017-12-25T16:35:55.169Z,0
2017-12-25T16:37:17.045Z,0
2017-12-25T16:38:39.176Z,0
2017-12-25T16:40:01.054Z,0
2017-12-25T16:41:23.289Z,0
2017-12-25T16:42:45.169Z,0
2017-12-25T16:44:07.076Z,0
2017-12-25T16:45:29.212Z,0
2017-12-25T16:46:51.438Z,0
2017-12-25T16:48:13.065Z,0
2017-12-25T16:49:35.199Z,0
2017-12-25T16:50:57.104Z,0
2017-12-25T16:52:19.258Z,0
2017-12-25T16:53:41.182Z,0
2017-12-25T16:55:02.877Z,0
2017-12-25T16:56:24.750Z,0
2017-12-25T16:57:47.001Z,0
2017-12-25T16:59:08.367Z,0
2017-12-25T17:00:30.564Z,0
2017-12-25T17:01:52.472Z,0
2017-12-25T17:03:14.378Z,0
2017-12-25T17:04:36.505Z,0
2017-12-25T17:05:58.778Z,0
2017-12-25T17:07:21.209Z,0
2017-12-25T17:08:43.251Z,0
2017-12-25T17:10:05.505Z,0
2017-12-25T17:11:27.215Z,0
2017-12-25T17:12:49.122Z,0
2017-12-25T17:14:11.395Z,0
2017-12-25T17:15:33.258Z,0
2017-12-25T17:16:55.391Z,0
2017-12-25T17:18:17.529Z,0
2017-12-25T17:19:39.419Z,0
2017-12-25T17:21:01.033Z,0
2017-12-25T17:22:22.936Z,0
2017-12-25T17:23:45.247Z,0
2017-12-25T17:25:07.243Z,0
2017-12-25T17:26:28.855Z,0
2017-12-25T17:27:50.520Z,0
2017-12-25T17:29:12.421Z,0
2017-12-25T17:30:34.333Z,0
2017-12-25T17:31:56.495Z,0
2017-12-25T17:33:18.642Z,0
2017-12-25T17:34:40.605Z,0
2017-12-25T17:36:02.732Z,0
2017-12-25T17:37:23.822Z,0
2017-12-25T17:38:45.959Z,0
2017-12-25T17:40:07.868Z,0
2017-12-25T17:41:29.570Z,0
2017-12-25T17:42:51.723Z,0
2017-12-25T17:44:13.353Z,0
2017-12-25T17:45:35.081Z,0
2017-12-25T17:46:56.971Z,0
2017-12-25T17:48:19.174Z,0
2017-12-25T17:49:41.072Z,0
2017-12-25T17:51:03.364Z,0
2017-12-25T17:52:25.805Z,0
2017-12-25T17:53:47.673Z,0
2017-12-25T17:55:09.095Z,0
2017-12-25T17:56:30.727Z,0
2017-12-25T17:57:52.994Z,0
2017-12-25T17:59:14.903Z,0
2017-12-25T18:00:36.915Z,0
2017-12-25T18:01:58.799Z,0
2017-12-25T18:03:20.994Z,0
2017-12-25T18:04:42.856Z,0
2017-12-25T18:06:04.993Z,0
2017-12-25T18:07:27.188Z,0
2017-12-25T18:08:49.652Z,0
2017-12-25T18:10:11.540Z,0
2017-12-25T18:11:33.319Z,0
2017-12-25T18:12:55.236Z,0
2017-12-25T18:14:17.453Z,0
2017-12-25T18:15:39.738Z,0
2017-12-25T18:17:01.606Z,0
2017-12-25T18:18:23.478Z,0
2017-12-25T18:19:45.406Z,0
2017-12-25T18:21:07.563Z,0
2017-12-25T18:22:29.019Z,0
2017-12-25T18:23:50.887Z,0
2017-12-25T18:25:12.517Z,0
2017-12-25T18:26:34.150Z,0
2017-12-25T18:27:56.184Z,0
2017-12-25T18:29:17.813Z,0
2017-12-25T18:30:39.415Z,0
2017-12-25T18:32:01.583Z,0
2017-12-25T18:33:23.871Z,0
2017-12-25T18:34:46.005Z,0
2017-12-25T18:36:08.147Z,0
2017-12-25T18:37:30.020Z,0
2017-12-25T18:38:52.189Z,0
2017-12-25T18:40:14.092Z,0
2017-12-25T18:41:35.813Z,0
2017-12-25T18:42:57.733Z,0
2017-12-25T18:44:19.644Z,0
2017-12-25T18:45:41.795Z,0
2017-12-25T18:47:04.195Z,0
2017-12-25T18:48:26.185Z,0
2017-12-25T18:49:48.350Z,0
2017-12-25T18:51:09.763Z,0
2017-12-25T18:52:31.933Z,0
2017-12-25T18:53:54.180Z,0
2017-12-25T18:55:16.041Z,0
2017-12-25T18:56:38.172Z,0
2017-12-25T18:58:00.083Z,0
2017-12-25T18:59:22.224Z,0
2017-12-25T19:00:44.097Z,0
2017-12-25T19:02:05.720Z,0
2017-12-25T19:03:27.923Z,0
2017-12-25T19:04:49.780Z,0
2017-12-25T19:06:11.972Z,0
2017-12-25T19:07:33.657Z,0
2017-12-25T19:08:55.568Z,0
2017-12-25T19:10:17.228Z,0
2017-12-25T19:11:39.360Z,0
2017-12-25T19:13:01.479Z,0
2017-12-25T19:14:23.105Z,0
2017-12-25T19:15:45.273Z,0
2017-12-25T19:17:07.473Z,0
2017-12-25T19:18:29.108Z,0
2017-12-25T19:19:51.093Z,0
2017-12-25T19:21:13.313Z,0
2017-12-25T19:22:35.334Z,0
2017-12-25T19:23:57.224Z,0
2017-12-25T19:25:19.072Z,0
2017-12-25T19:26:41.047Z,0
2017-12-25T19:28:02.563Z,0
2017-12-25T19:29:24.825Z,0
2017-12-25T19:30:46.755Z,0
2017-12-25T19:32:09.075Z,0
2017-12-25T19:33:31.217Z,0
2017-12-25T19:34:53.110Z,0
2017-12-25T19:36:14.826Z,0
2017-12-25T19:37:36.778Z,0
2017-12-25T19:38:58.991Z,0
2017-12-25T19:40:20.912Z,0
2017-12-25T19:41:43.162Z,0
2017-12-25T19:43:05.085Z,0
2017-12-25T19:44:26.985Z,0
2017-12-25T19:45:49.198Z,0
2017-12-25T19:47:11.345Z,0
2017-12-25T19:48:33.264Z,0
2017-12-25T19:49:54.881Z,0
2017-12-25T19:51:16.764Z,0
2017-12-25T19:52:38.420Z,0
2017-12-25T19:54:00.550Z,0
2017-12-25T19:55:22.741Z,0
2017-12-25T19:56:44.423Z,0